• Join FlightAware (Why Join?)
  • Login
  • US Flag 
12:24PM EST


 

Airport Tracker/Info


-or-


 

Live Flight TrackerFlight Track Log ✈ TRS398 ✈ 24-May-2013 ✈ KMCO - KMKE

Flight Track Log - Related Links

Times and Time Zones

All times are in EDT time to prevent confusion due to time zone crossing. See the TRS398 flight status page for this flight to view local times or setup timezone preferences in your user account.

Time Position Orientation Groundspeed Altitude Reporting Facility
EDT Latitude Longitude Course Direction KTS MPH feet Rate Location/Type
02:38PM 28.4333 -81.3000 30° Northeast 174 200 500  Level Orlando TRACON
02:39PM 28.4833 -81.2667 30° Northeast 200 230 2,400 1,680 Climbing Orlando TRACON
02:40PM 28.5333 -81.2333 30° Northeast 249 287 3,800 2,040 Climbing Orlando TRACON
02:41PM 28.6000 -81.2500 348° North 266 306 6,300 2,520 Climbing Orlando TRACON
02:42PM 28.6678 -81.2861 335° Northwest 279 321 9,000 2,280 Climbing Jacksonville Center
02:43PM 28.7372 -81.3203 337° Northwest 274 315 11,000 1,800 Climbing Jacksonville Center
02:44PM 28.8189 -81.3522 341° North 281 323 12,700 1,440 Climbing Jacksonville Center
02:45PM 28.9092 -81.3864 342° North 310 357 13,900 1,200 Climbing Jacksonville Center
02:46PM 29.0161 -81.4275 341° North 339 390 15,100 1,380 Climbing Jacksonville Center
02:47PM 29.1103 -81.4642 341° North 373 429 16,700 1,500 Climbing Jacksonville Center
02:48PM 29.2236 -81.5125 340° North 387 445 18,200 1,260 Climbing Jacksonville Center
02:49PM 29.3347 -81.5539 342° North 394 453 19,300 1,260 Climbing Jacksonville Center
02:50PM 29.4458 -81.5953 342° North 408 470 20,800 1,380 Climbing Jacksonville Center
02:51PM 29.5569 -81.6392 341° North 413 475 22,100 1,200 Climbing Jacksonville Center
02:52PM 29.6678 -81.6831 341° North 413 475 23,300 1,020 Climbing Jacksonville Center
02:53PM 29.7853 -81.7247 343° North 419 482 24,200 960 Climbing Jacksonville Center
02:54PM 29.9064 -81.7353 356° North 425 489 25,300 900 Climbing Jacksonville Center
02:55PM 30.0336 -81.7408 358° North 437 503 26,100 780 Climbing Jacksonville Center
02:56PM 30.1592 -81.7492 357° North 444 511 26,900 420 Climbing Jacksonville Center
02:57PM 30.2867 -81.7594 356° North 449 517 27,000  Climbing Jacksonville Center
02:58PM 30.4139 -81.7678 357° North 463 533 27,000  Level Jacksonville Center
02:59PM 30.5372 -81.7736 358° North 445 512 27,000  Level Jacksonville Center
03:00PM 30.6564 -81.7889 354° North 450 518 27,000 -60 Level Jacksonville Center
03:01PM 30.7817 -81.7997 356° North 450 518 26,900  Descending Jacksonville Center
03:02PM 30.9011 -81.8394 344° North 450 518 27,000  Climbing Jacksonville Center
03:03PM 31.0081 -81.9061 332° Northwest 440 506 27,000  Level Jacksonville Center
03:04PM 31.1172 -81.9681 334° Northwest 440 506 27,000 180 Level Jacksonville Center
03:05PM 31.2283 -82.0325 334° Northwest 440 506 27,400 900 Climbing Jacksonville Center
03:06PM 31.3353 -82.0972 333° Northwest 434 499 28,800 780 Climbing Jacksonville Center
03:07PM 31.4400 -82.1619 332° Northwest 429 494 29,000 60 Climbing Jacksonville Center
03:09PM 31.6611 -82.2869 334° Northwest 449 517 29,000  Level Atlanta Center
03:10PM 31.7683 -82.3533 332° Northwest 439 505 29,000  Level Atlanta Center
03:11PM 31.8736 -82.4175 333° Northwest 427 491 29,000  Level Atlanta Center
03:12PM 31.9767 -82.4792 333° Northwest 422 486 29,000  Level Atlanta Center
03:13PM 32.0819 -82.5436 333° Northwest 422 486 29,000 300 Level Atlanta Center
03:14PM 32.1806 -82.6008 334° Northwest 422 486 29,700 900 Climbing Atlanta Center
03:15PM 32.2836 -82.6631 333° Northwest 417 480 30,900 1,080 Climbing Atlanta Center
03:16PM 32.3886 -82.7253 333° Northwest 417 480 31,900 540 Climbing Atlanta Center
03:17PM 32.4894 -82.7903 331° Northwest 417 480 32,000  Climbing Atlanta Center
03:18PM 32.5925 -82.8506 334° Northwest 410 472 32,000  Level Atlanta Center
03:19PM 32.6953 -82.9083 335° Northwest 410 472 32,000  Level Atlanta Center
03:20PM 32.8044 -82.9664 336° Northwest 410 472 32,000  Level Atlanta Center
03:21PM 32.9092 -83.0244 335° Northwest 410 472 32,000 480 Level Atlanta Center
03:22PM 33.0142 -83.0825 335° Northwest 410 472 33,000 960 Climbing Atlanta Center
03:23PM 33.1294 -83.1458 335° Northwest 405 466 34,000 480 Climbing Atlanta Center
03:24PM 33.2319 -83.2019 335° Northwest 405 466 34,000  Level Atlanta Center
03:25PM 33.3347 -83.2606 335° Northwest 405 466 34,000  Level Atlanta Center
03:26PM 33.4331 -83.3144 335° Northwest 397 457 34,000  Level Atlanta Center
03:27PM 33.5336 -83.3708 335° Northwest 392 451 34,000  Level Atlanta Center
03:28PM 33.6236 -83.4225 334° Northwest 386 444 34,000  Level Atlanta Center
03:29PM 33.7219 -83.4769 335° Northwest 386 444 34,000  Level Atlanta Center
03:30PM 33.8225 -83.5361 334° Northwest 386 444 34,000  Level Atlanta Center
03:31PM 33.9186 -83.5881 336° Northwest 386 444 34,000  Level Atlanta Center
03:32PM 34.0169 -83.6428 335° Northwest 386 444 34,000  Level Atlanta Center
03:33PM 34.1131 -83.7000 334° Northwest 386 444 34,000  Level Atlanta Center
03:34PM 34.2114 -83.7575 334° Northwest 386 444 34,000  Level Atlanta Center
03:35PM 34.3075 -83.8125 335° Northwest 386 444 34,000  Level Atlanta Center
03:36PM 34.4036 -83.8650 336° Northwest 386 444 34,000  Level Atlanta Center
03:37PM 34.5017 -83.9228 334° Northwest 386 444 34,000  Level Atlanta Center
03:38PM 34.6083 -83.9858 334° Northwest 386 444 34,000  Level Atlanta Center
03:39PM 34.7042 -84.0439 334° Northwest 386 444 34,000  Level Atlanta Center
03:40PM 34.8003 -84.1019 334° Northwest 386 444 34,000  Level Atlanta Center
03:41PM 34.8983 -84.1578 335° Northwest 386 444 34,000  Level Atlanta Center
03:42PM 34.9961 -84.2136 335° Northwest 386 444 34,000  Level Atlanta Center
03:43PM 35.0922 -84.2697 334° Northwest 386 444 34,000  Level Atlanta Center
03:44PM 35.1900 -84.3283 334° Northwest 386 444 34,000  Level Atlanta Center
03:45PM 35.2839 -84.3847 334° Northwest 386 444 34,000  Level Atlanta Center
03:46PM 35.3775 -84.4386 335° Northwest 386 444 34,000  Level Atlanta Center
03:47PM 35.4733 -84.4953 334° Northwest 381 438 34,000  Level Atlanta Center
03:48PM 35.5669 -84.5519 334° Northwest 381 438 34,000  Level Atlanta Center
03:49PM 35.6606 -84.6061 335° Northwest 376 433 34,000  Level Atlanta Center
03:50PM 35.7583 -84.6631 335° Northwest 376 433 34,000  Level Atlanta Center
03:51PM 35.8519 -84.7178 335° Northwest 376 433 34,000  Level Atlanta Center
03:53PM 36.0578 -84.8436 334° Northwest 383 441 34,000  Level Indianapolis Center
03:54PM 36.1511 -84.9008 334° Northwest 379 436 34,000  Level Indianapolis Center
03:55PM 36.2647 -84.9694 334° Northwest 378 435 34,000  Level Indianapolis Center
03:56PM 36.3594 -85.0261 334° Northwest 378 435 34,000  Level Indianapolis Center
03:57PM 36.4528 -85.0842 333° Northwest 377 434 34,000  Level Indianapolis Center
03:58PM 36.5483 -85.1425 334° Northwest 380 437 34,000  Level Indianapolis Center
03:59PM 36.6458 -85.1919 338° Northwest 383 441 34,000  Level Indianapolis Center
04:00PM 36.7503 -85.2192 348° North 383 441 34,000  Level Indianapolis Center
04:01PM 36.8747 -85.2514 348° North 381 438 34,000  Level Indianapolis Center
04:02PM 36.9794 -85.2786 348° North 383 441 34,000  Level Indianapolis Center
04:03PM 37.0878 -85.3078 348° North 377 434 34,000  Level Indianapolis Center
04:04PM 37.1925 -85.3339 349° North 382 440 34,000  Level Indianapolis Center
04:06PM 37.2953 -85.3606 348° North 377 434 34,000  Level Indianapolis Center
04:07PM 37.4036 -85.3592 North 386 444 34,000  Level Indianapolis Center
04:08PM 37.5119 -85.3569 North 388 447 34,000  Level Indianapolis Center
04:09PM 37.6186 -85.3558 360° North 382 440 34,000  Level Indianapolis Center
04:10PM 37.7442 -85.3517 North 383 441 34,000  Level Indianapolis Center
04:11PM 37.8392 -85.3489 North 385 443 34,000  Level Indianapolis Center
04:12PM 37.9408 -85.3786 347° North 374 430 34,000  Level Indianapolis Center
04:13PM 38.0522 -85.4469 334° Northwest 369 425 34,000  Level Indianapolis Center
04:14PM 38.1461 -85.5042 334° Northwest 371 427 34,000  Level Indianapolis Center
04:15PM 38.2392 -85.5633 333° Northwest 373 429 34,000  Level Indianapolis Center
04:16PM 38.3328 -85.6208 334° Northwest 373 429 34,000  Level Indianapolis Center
04:17PM 38.4250 -85.6803 333° Northwest 373 429 34,000  Level Indianapolis Center
04:18PM 38.5189 -85.7392 334° Northwest 375 432 34,000  Level Indianapolis Center
04:19PM 38.6286 -85.8081 334° Northwest 375 432 34,000  Level Indianapolis Center
04:20PM 38.7211 -85.8675 333° Northwest 374 430 34,000  Level Indianapolis Center
04:21PM 38.8172 -85.9292 333° Northwest 373 429 34,000  Level Indianapolis Center
04:22PM 38.9067 -85.9853 334° Northwest 373 429 34,000  Level Indianapolis Center
04:23PM 38.9994 -86.0456 333° Northwest 372 428 34,000  Level Indianapolis Center
04:24PM 39.0922 -86.1039 334° Northwest 372 428 34,000  Level Indianapolis Center
04:25PM 39.2028 -86.1764 333° Northwest 372 428 34,000  Level Indianapolis Center
04:26PM 39.2953 -86.2356 334° Northwest 372 428 34,000  Level Indianapolis Center
04:27PM 39.3883 -86.2972 333° Northwest 375 432 34,000  Level Indianapolis Center
04:28PM 39.4819 -86.3572 334° Northwest 372 428 34,000  Level Indianapolis Center
04:29PM 39.5753 -86.4192 333° Northwest 374 430 34,000  Level Indianapolis Center
04:30PM 39.6703 -86.4814 333° Northwest 375 432 34,000  Level Indianapolis Center
04:31PM 39.7653 -86.5428 334° Northwest 375 432 34,000  Level Indianapolis Center
04:32PM 39.8619 -86.5978 336° Northwest 377 434 34,000 -300 Level Indianapolis Center
04:33PM 39.9850 -86.6347 347° North 377 434 33,400 -540 Descending Indianapolis Center
04:34PM 40.0867 -86.6681 346° North 376 433 33,000 -240 Descending Indianapolis Center
04:35PM 40.1844 -86.7181 339° North 377 434 33,000  Level Indianapolis Center
04:36PM 40.2039 -86.7289 337° Northwest 378 435 33,000  Level Chicago Center
04:37PM 40.3214 -86.7875 339° North 375 432 33,000  Level Chicago Center
04:38PM 40.4206 -86.8347 340° North 378 435 33,000  Level Chicago Center
04:39PM 40.5178 -86.8839 339° North 376 433 33,000  Level Chicago Center
04:40PM 40.6158 -86.9325 339° North 377 434 33,000  Level Chicago Center
04:41PM 40.7200 -86.9836 340° North 379 436 33,000  Level Chicago Center
04:42PM 40.8181 -87.0319 340° North 379 436 33,000  Level Chicago Center
04:43PM 40.9156 -87.0808 339° North 378 435 33,000  Level Chicago Center
04:44PM 41.0333 -87.1394 339° North 380 437 33,000  Level Chicago Center
04:45PM 41.1364 -87.1600 351° North 381 438 33,000 -420 Level Chicago Center
04:46PM 41.2394 -87.1722 355° North 377 434 32,200 -780 Descending Chicago Center
04:47PM 41.3453 -87.1853 355° North 384 442 31,400 -900 Descending Chicago Center
04:48PM 41.4739 -87.2008 355° North 389 448 30,400 -840 Descending Chicago Center
04:49PM 41.5814 -87.2133 355° North 391 450 29,700 -780 Descending Chicago Center
04:50PM 41.6886 -87.2269 355° North 392 451 28,900 -780 Descending Chicago Center
04:51PM 41.7936 -87.2403 355° North 385 443 28,100 -780 Descending Chicago Center
04:52PM 41.8978 -87.2519 355° North 381 438 27,300 -900 Descending Chicago Center
04:53PM 42.0203 -87.2681 354° North 375 432 26,300 -1,800 Descending Chicago Center
04:54PM 42.1181 -87.2772 356° North 361 415 23,700 -2,520 Descending Chicago Center
04:55PM 42.2158 -87.2903 354° North 356 410 21,100 -2,100 Descending Chicago Center
04:56PM 42.3142 -87.3022 355° North 356 410 19,400 -2,100 Descending Chicago Center
04:58PM 42.4100 -87.3142 355° North 351 404 16,800 -2,940 Descending Chicago Center
04:59PM 42.5044 -87.3253 355° North 342 394 13,300 -2,760 Descending Chicago Center
05:00PM 42.6142 -87.3400 354° North 331 381 11,100 -1,560 Descending Chicago Center
05:01PM 42.6831 -87.4325 315° West 330 380 10,000 -600 Descending Chicago Center
05:02PM 42.7353 -87.5350 305° West 330 380 9,900 -60 Descending Chicago Center
05:03PM 42.7867 -87.6353 305° West 324 373 9,900 -720 Level Chicago Center
05:04PM 42.8297 -87.7186 305° West 274 315 8,500 -1,440 Descending Chicago Center
05:05PM 42.8736 -87.8003 306° West 267 307 7,000 -780 Descending Chicago Center
05:06PM 42.8539 -87.9133 257° West 277 319 7,000 -300 Level Chicago Center
05:07PM 42.8272 -87.9942 246° West 241 277 6,400 -1,200 Descending Chicago Center
05:08PM 42.8022 -88.0664 245° Southwest 217 250 4,600 -1,500 Descending Chicago Center
05:09PM 42.8114 -88.1308 281° West 220 253 3,400 -960 Descending Chicago Center
05:10PM 42.8661 -88.1117 14° North 212 244 2,700 -420 Descending Chicago Center
05:11PM 42.9089 -88.0453 49° Northeast 204 235 2,600 -480 Descending Chicago Center
05:12PM 42.9228 -87.9836 73° East 179 206 1,800 -660 Descending Chicago Center
05:13PM 42.9331 -87.9389 73° East 157 181 1,300 -420 Descending Chicago Center
05:14PM 42.9442 -87.8944 71° East 152 175 1,000 -300 Descending Chicago Center